Time;durP1;ratioP1;P1;durP2;ratioP2;P2;SDS_P1;SDS_P2;PMS_P1;PMS_P2;Temp;Humidity;BMP_temperature;BMP_pressure;BME280_temperature;BME280_humidity;BME280_pressure;Samples;Min_cycle;Max_cycle;Signal;HPM_P1;HPM_P2
2024/03/06 00:00:19;;;;;;;23.83;14.17;;;;;;;;;;4411931;32;318579;-69
2024/03/06 00:02:45;;;;;;;22.50;12.83;;;;;;;;;;4401597;32;319267;-69
2024/03/06 00:05:13;;;;;;;27.37;12.87;;;;;;;;;;4410920;32;318644;-70
2024/03/06 00:07:40;;;;;;;24.43;14.30;;;;;;;;;;4400414;32;319926;-69
2024/03/06 00:10:08;;;;;;;34.87;15.27;;;;;;;;;;4415312;32;319418;-69
2024/03/06 00:12:35;;;;;;;28.53;15.37;;;;;;;;;;4405052;32;319375;-68
2024/03/06 00:15:02;;;;;;;30.50;15.20;;;;;;;;;;4415468;32;319466;-69
2024/03/06 00:17:30;;;;;;;26.27;16.43;;;;;;;;;;4404631;32;319768;-71
2024/03/06 00:19:57;;;;;;;38.30;17.20;;;;;;;;;;4412877;32;319800;-69
2024/03/06 00:22:23;;;;;;;28.07;15.30;;;;;;;;;;4414564;32;319496;-69
2024/03/06 00:24:50;;;;;;;20.87;13.87;;;;;;;;;;4403577;32;320241;-69
2024/03/06 00:27:17;;;;;;;29.20;14.67;;;;;;;;;;4414571;32;326245;-68
2024/03/06 00:29:44;;;;;;;19.87;13.23;;;;;;;;;;4403064;32;319613;-69
2024/03/06 00:32:10;;;;;;;23.70;15.17;;;;;;;;;;4414602;32;319601;-71
2024/03/06 00:34:38;;;;;;;24.57;15.07;;;;;;;;;;4402429;32;318825;-69
2024/03/06 00:37:05;;;;;;;23.30;14.17;;;;;;;;;;4418329;32;319669;-68
2024/03/06 00:39:32;;;;;;;21.33;14.07;;;;;;;;;;4404222;32;319598;-69
2024/03/06 00:41:58;;;;;;;20.33;12.50;;;;;;;;;;4412348;32;319427;-69
2024/03/06 00:44:25;;;;;;;22.30;13.60;;;;;;;;;;4413372;32;319514;-69
2024/03/06 00:46:52;;;;;;;18.20;12.17;;;;;;;;;;4400259;32;418819;-69
2024/03/06 00:49:18;;;;;;;21.33;13.20;;;;;;;;;;4414651;32;319407;-69
2024/03/06 00:51:47;;;;;;;26.20;13.37;;;;;;;;;;4398231;32;319921;-69
2024/03/06 00:54:13;;;;;;;19.87;13.03;;;;;;;;;;4412903;32;319495;-71
2024/03/06 00:56:40;;;;;;;19.63;11.07;;;;;;;;;;4402936;32;318750;-69
2024/03/06 00:59:07;;;;;;;18.30;11.43;;;;;;;;;;4413289;32;319602;-69
2024/03/06 01:01:34;;;;;;;20.30;11.20;;;;;;;;;;4403928;32;319419;-68
2024/03/06 01:04:01;;;;;;;26.30;11.30;;;;;;;;;;4411990;32;319464;-69
2024/03/06 01:06:27;;;;;;;13.47;10.57;;;;;;;;;;4404281;32;319632;-71
2024/03/06 01:08:56;;;;;;;15.83;10.63;;;;;;;;;;4413502;32;319816;-71
2024/03/06 01:11:23;;;;;;;20.10;14.30;;;;;;;;;;4413821;32;319391;-68
2024/03/06 01:13:50;;;;;;;24.00;11.87;;;;;;;;;;4400564;32;325177;-72
2024/03/06 01:16:17;;;;;;;18.53;10.87;;;;;;;;;;4414061;32;319403;-70
2024/03/06 01:18:43;;;;;;;17.93;9.97;;;;;;;;;;4403437;32;319562;-70
2024/03/06 01:21:10;;;;;;;18.17;12.00;;;;;;;;;;4413482;32;318372;-68
2024/03/06 01:23:37;;;;;;;18.13;12.57;;;;;;;;;;4404198;32;339629;-68
2024/03/06 01:26:05;;;;;;;22.77;13.30;;;;;;;;;;4412988;32;319350;-68
2024/03/06 01:28:33;;;;;;;19.90;13.40;;;;;;;;;;4402800;32;319637;-69
2024/03/06 01:30:59;;;;;;;18.83;12.60;;;;;;;;;;4413940;32;319370;-70
2024/03/06 01:33:26;;;;;;;20.03;13.50;;;;;;;;;;4412074;32;318069;-71
2024/03/06 01:35:53;;;;;;;22.37;14.03;;;;;;;;;;4398572;32;420779;-70
2024/03/06 01:38:19;;;;;;;26.40;14.17;;;;;;;;;;4413790;32;318824;-69
2024/03/06 01:40:46;;;;;;;21.73;14.00;;;;;;;;;;4402268;32;319396;-69
2024/03/06 01:43:24;;;;;;;37.50;16.00;;;;;;;;;;4412524;32;318547;-69
2024/03/06 01:45:52;;;;;;;22.37;12.10;;;;;;;;;;4398472;32;417847;-69
2024/03/06 01:48:22;;;;;;;18.10;13.03;;;;;;;;;;4412510;32;317668;-68
2024/03/06 01:50:48;;;;;;;17.87;11.53;;;;;;;;;;4403556;32;318119;-69
2024/03/06 01:53:17;;;;;;;19.10;12.33;;;;;;;;;;4413320;32;318806;-69
2024/03/06 01:55:44;;;;;;;19.50;12.97;;;;;;;;;;4400025;32;360531;-69
2024/03/06 01:58:11;;;;;;;27.50;18.23;;;;;;;;;;4413623;32;318492;-69
2024/03/06 02:00:39;;;;;;;72.23;40.63;;;;;;;;;;4403584;32;318287;-69
2024/03/06 02:03:06;;;;;;;34.30;20.47;;;;;;;;;;4412728;32;318438;-69
2024/03/06 02:05:34;;;;;;;23.60;14.03;;;;;;;;;;4401920;32;317621;-68
2024/03/06 02:08:02;;;;;;;19.30;13.33;;;;;;;;;;4411581;32;318408;-69
2024/03/06 02:10:28;;;;;;;21.73;12.70;;;;;;;;;;4402853;32;318246;-69
2024/03/06 02:12:55;;;;;;;26.43;12.93;;;;;;;;;;4413634;32;317526;-69
2024/03/06 02:15:22;;;;;;;23.80;13.50;;;;;;;;;;4412927;32;318298;-68
2024/03/06 02:17:50;;;;;;;19.87;13.37;;;;;;;;;;4401080;32;318741;-70
2024/03/06 02:20:17;;;;;;;23.70;15.00;;;;;;;;;;4411581;32;318286;-68
2024/03/06 02:22:47;;;;;;;24.67;16.23;;;;;;;;;;4402899;32;318233;-69
2024/03/06 02:25:14;;;;;;;45.87;21.73;;;;;;;;;;4413213;32;318264;-68
2024/03/06 02:27:41;;;;;;;36.03;19.67;;;;;;;;;;4400074;32;318203;-69
2024/03/06 02:30:09;;;;;;;33.57;19.33;;;;;;;;;;4411873;32;337426;-69
2024/03/06 02:32:35;;;;;;;41.13;20.57;;;;;;;;;;4403084;32;318364;-68
2024/03/06 02:35:03;;;;;;;27.70;18.07;;;;;;;;;;4412131;32;318350;-69
2024/03/06 02:37:30;;;;;;;26.90;14.73;;;;;;;;;;4402487;32;318243;-69
2024/03/06 02:39:59;;;;;;;25.07;15.57;;;;;;;;;;4411100;32;317673;-71
2024/03/06 02:42:27;;;;;;;27.90;15.97;;;;;;;;;;4413095;32;318232;-70
2024/03/06 02:44:53;;;;;;;26.10;16.13;;;;;;;;;;4400108;32;419255;-69
2024/03/06 02:47:20;;;;;;;24.93;16.33;;;;;;;;;;4411758;32;318439;-68
2024/03/06 02:49:47;;;;;;;26.63;16.73;;;;;;;;;;4400320;32;319420;-69
2024/03/06 02:52:14;;;;;;;23.63;14.17;;;;;;;;;;4412885;32;316618;-68
2024/03/06 02:54:42;;;;;;;21.90;15.83;;;;;;;;;;4401188;32;316599;-70
2024/03/06 02:57:10;;;;;;;21.93;15.07;;;;;;;;;;4413090;32;316630;-69
2024/03/06 02:59:37;;;;;;;30.47;15.53;;;;;;;;;;4402472;32;318306;-69
2024/03/06 03:02:04;;;;;;;28.27;16.87;;;;;;;;;;4411483;32;318442;-70
2024/03/06 03:04:30;;;;;;;25.30;15.83;;;;;;;;;;4401795;32;318337;-69
2024/03/06 03:06:57;;;;;;;28.23;15.43;;;;;;;;;;4411365;32;318522;-69
2024/03/06 03:09:24;;;;;;;26.37;15.37;;;;;;;;;;4412699;32;318644;-70
2024/03/06 03:11:51;;;;;;;31.50;14.50;;;;;;;;;;4400145;32;318283;-70
2024/03/06 03:14:19;;;;;;;22.83;13.17;;;;;;;;;;4411230;32;317539;-68
2024/03/06 03:16:45;;;;;;;19.27;13.07;;;;;;;;;;4401528;32;318529;-70
2024/03/06 03:19:12;;;;;;;20.10;13.20;;;;;;;;;;4411847;32;318269;-71
2024/03/06 03:21:40;;;;;;;21.27;12.07;;;;;;;;;;4399724;32;318456;-69
2024/03/06 03:24:07;;;;;;;21.50;13.07;;;;;;;;;;4412166;32;318271;-70
2024/03/06 03:26:33;;;;;;;27.40;16.40;;;;;;;;;;4401985;32;318476;-69
2024/03/06 03:29:00;;;;;;;24.63;15.80;;;;;;;;;;4411120;32;353198;-69
2024/03/06 03:31:28;;;;;;;25.00;15.83;;;;;;;;;;4402771;32;318372;-69
2024/03/06 03:33:55;;;;;;;32.97;16.97;;;;;;;;;;4410570;32;318379;-70
2024/03/06 03:36:22;;;;;;;31.50;19.43;;;;;;;;;;4412186;32;318468;-69
2024/03/06 03:38:48;;;;;;;31.23;17.80;;;;;;;;;;4400983;32;318273;-69
2024/03/06 03:41:16;;;;;;;21.57;14.00;;;;;;;;;;4412112;32;316554;-68
2024/03/06 03:43:43;;;;;;;24.53;15.40;;;;;;;;;;4399778;32;318486;-68
2024/03/06 03:46:10;;;;;;;42.03;24.10;;;;;;;;;;4412438;32;318123;-69
2024/03/06 03:48:38;;;;;;;42.17;23.23;;;;;;;;;;4401557;32;318418;-68
2024/03/06 03:51:06;;;;;;;37.87;19.87;;;;;;;;;;4409759;32;318389;-69
2024/03/06 03:53:33;;;;;;;32.00;20.63;;;;;;;;;;4402722;32;318512;-68
2024/03/06 03:56:00;;;;;;;33.60;20.23;;;;;;;;;;4409460;32;354855;-69
2024/03/06 03:58:27;;;;;;;37.57;21.40;;;;;;;;;;4402017;32;318425;-71
2024/03/06 04:00:55;;;;;;;47.53;21.90;;;;;;;;;;4411743;32;319020;-70
2024/03/06 04:03:21;;;;;;;38.33;20.93;;;;;;;;;;4410941;32;318377;-72
2024/03/06 04:05:50;;;;;;;29.87;19.13;;;;;;;;;;4397440;32;352779;-68
2024/03/06 04:08:17;;;;;;;37.63;22.97;;;;;;;;;;4411725;32;318322;-71
2024/03/06 04:10:44;;;;;;;34.33;21.07;;;;;;;;;;4400529;32;318278;-68
2024/03/06 04:13:11;;;;;;;28.53;16.90;;;;;;;;;;4410973;32;318218;-69
2024/03/06 04:15:38;;;;;;;36.33;19.93;;;;;;;;;;4401633;32;347374;-71
2024/03/06 04:18:05;;;;;;;32.73;19.30;;;;;;;;;;4411034;32;318379;-69
2024/03/06 04:20:32;;;;;;;33.67;19.93;;;;;;;;;;4401579;32;317952;-69
2024/03/06 04:23:00;;;;;;;42.63;21.90;;;;;;;;;;4412163;32;317460;-69
2024/03/06 04:25:27;;;;;;;47.07;25.53;;;;;;;;;;4402169;32;318469;-72
2024/03/06 04:27:53;;;;;;;44.53;24.93;;;;;;;;;;4409104;32;318215;-69
2024/03/06 04:30:20;;;;;;;45.07;26.27;;;;;;;;;;4413934;32;327509;-69
2024/03/06 04:32:47;;;;;;;53.03;26.20;;;;;;;;;;4400003;32;350088;-69
2024/03/06 04:35:15;;;;;;;56.37;26.17;;;;;;;;;;4411972;32;318509;-71
2024/03/06 04:37:41;;;;;;;44.17;26.13;;;;;;;;;;4397972;32;318967;-69
2024/03/06 04:40:10;;;;;;;45.90;28.50;;;;;;;;;;4412253;32;318293;-70
2024/03/06 04:42:37;;;;;;;50.57;27.53;;;;;;;;;;4403031;32;318377;-71
2024/03/06 04:45:04;;;;;;;56.87;33.60;;;;;;;;;;4413009;32;318403;-69
2024/03/06 04:47:31;;;;;;;54.07;30.07;;;;;;;;;;4403912;32;318259;-69
2024/03/06 04:49:58;;;;;;;50.97;29.77;;;;;;;;;;4410238;32;318487;-68
2024/03/06 04:52:25;;;;;;;49.30;30.30;;;;;;;;;;4412117;32;318393;-69
2024/03/06 04:54:52;;;;;;;50.30;29.33;;;;;;;;;;4404801;32;318946;-68
2024/03/06 04:57:20;;;;;;;47.00;29.00;;;;;;;;;;4412692;32;318214;-69
2024/03/06 04:59:46;;;;;;;41.80;26.70;;;;;;;;;;4401277;32;318303;-69
2024/03/06 05:02:13;;;;;;;47.90;29.73;;;;;;;;;;4414128;32;352381;-71
2024/03/06 05:04:40;;;;;;;49.73;27.93;;;;;;;;;;4403368;32;318808;-70
2024/03/06 05:07:07;;;;;;;44.50;25.77;;;;;;;;;;4402864;32;317765;-70
2024/03/06 05:09:34;;;;;;;41.87;25.50;;;;;;;;;;4412425;32;317953;-69
2024/03/06 05:12:01;;;;;;;43.33;25.00;;;;;;;;;;4414651;32;318340;-70
2024/03/06 05:14:29;;;;;;;44.47;28.33;;;;;;;;;;4404704;32;319250;-69
2024/03/06 05:16:56;;;;;;;50.40;28.10;;;;;;;;;;4414514;32;318570;-69
2024/03/06 05:19:23;;;;;;;48.43;26.93;;;;;;;;;;4402133;32;318435;-69
2024/03/06 05:21:49;;;;;;;44.93;27.47;;;;;;;;;;4412951;32;318548;-69
2024/03/06 05:24:16;;;;;;;53.93;30.17;;;;;;;;;;4404226;32;318789;-70
2024/03/06 05:26:43;;;;;;;35.83;23.80;;;;;;;;;;4413814;32;318556;-71
2024/03/06 05:29:10;;;;;;;45.13;24.73;;;;;;;;;;4402987;32;317895;-69
2024/03/06 05:31:38;;;;;;;41.57;26.63;;;;;;;;;;4410426;32;317373;-70
2024/03/06 05:34:05;;;;;;;43.70;26.00;;;;;;;;;;4413150;32;318258;-69
2024/03/06 05:36:32;;;;;;;40.30;26.03;;;;;;;;;;4391116;32;417166;-69
2024/03/06 05:38:58;;;;;;;43.43;25.60;;;;;;;;;;4413645;32;318372;-70
2024/03/06 05:41:25;;;;;;;61.40;29.13;;;;;;;;;;4402063;32;318662;-69
2024/03/06 05:43:52;;;;;;;39.73;24.83;;;;;;;;;;4411400;32;317507;-69
2024/03/06 05:46:19;;;;;;;48.57;28.00;;;;;;;;;;4401982;32;317739;-70
2024/03/06 05:48:47;;;;;;;39.20;24.60;;;;;;;;;;4412857;32;317477;-70
2024/03/06 05:51:14;;;;;;;42.00;25.87;;;;;;;;;;4403631;32;318538;-72
2024/03/06 05:53:42;;;;;;;41.60;22.87;;;;;;;;;;4410158;32;318109;-71
2024/03/06 05:56:09;;;;;;;48.00;23.87;;;;;;;;;;4402264;32;318333;-71
2024/03/06 05:58:36;;;;;;;49.93;22.83;;;;;;;;;;4412408;32;318531;-73
2024/03/06 06:01:03;;;;;;;39.43;24.57;;;;;;;;;;4412157;32;319332;-70
2024/03/06 06:03:30;;;;;;;47.13;26.03;;;;;;;;;;4399568;32;318912;-72
2024/03/06 06:05:58;;;;;;;55.63;28.60;;;;;;;;;;4411551;32;318606;-72
2024/03/06 06:08:25;;;;;;;48.47;26.50;;;;;;;;;;4402827;32;318670;-71
2024/03/06 06:10:52;;;;;;;45.47;26.13;;;;;;;;;;4413303;32;318374;-71
2024/03/06 06:13:19;;;;;;;46.03;25.47;;;;;;;;;;4400787;32;318252;-69
2024/03/06 06:15:46;;;;;;;45.73;30.37;;;;;;;;;;4411461;32;318283;-69
2024/03/06 06:18:12;;;;;;;44.57;25.97;;;;;;;;;;4402910;32;318210;-71
2024/03/06 06:20:39;;;;;;;46.03;24.10;;;;;;;;;;4412834;32;318645;-71
2024/03/06 06:23:07;;;;;;;33.63;21.83;;;;;;;;;;4403072;32;317941;-71
2024/03/06 06:25:35;;;;;;;34.93;22.00;;;;;;;;;;4409198;32;318342;-71
2024/03/06 06:28:01;;;;;;;28.17;18.57;;;;;;;;;;4412791;32;317616;-69
2024/03/06 06:30:28;;;;;;;34.37;19.57;;;;;;;;;;4403127;32;318363;-70
2024/03/06 06:32:55;;;;;;;28.93;17.47;;;;;;;;;;4412455;32;317762;-70
2024/03/06 06:35:22;;;;;;;51.67;29.83;;;;;;;;;;4399085;32;317687;-68
2024/03/06 06:37:49;;;;;;;31.83;17.80;;;;;;;;;;4411426;32;317975;-69
2024/03/06 06:40:17;;;;;;;39.57;23.83;;;;;;;;;;4401513;32;356124;-69
2024/03/06 06:42:50;;;;;;;40.20;23.50;;;;;;;;;;4412318;32;318338;-71
2024/03/06 06:45:17;;;;;;;39.23;22.30;;;;;;;;;;4401025;32;318437;-69
2024/03/06 06:47:44;;;;;;;30.53;16.57;;;;;;;;;;4412843;32;318222;-70
2024/03/06 06:50:11;;;;;;;24.70;16.57;;;;;;;;;;4402967;32;318051;-71
2024/03/06 06:52:38;;;;;;;32.10;21.33;;;;;;;;;;4412199;32;318510;-69
2024/03/06 06:55:06;;;;;;;37.10;18.57;;;;;;;;;;4412753;32;318333;-71
2024/03/06 06:57:34;;;;;;;37.40;16.57;;;;;;;;;;4396609;32;417194;-72
2024/03/06 07:00:01;;;;;;;33.90;18.57;;;;;;;;;;4410907;32;317395;-71
2024/03/06 07:02:29;;;;;;;31.07;19.90;;;;;;;;;;4401770;32;318395;-70
2024/03/06 07:04:57;;;;;;;37.80;21.27;;;;;;;;;;4412916;32;318354;-69
2024/03/06 07:07:23;;;;;;;35.10;21.13;;;;;;;;;;4399085;32;318645;-72
2024/03/06 07:09:50;;;;;;;30.13;20.97;;;;;;;;;;4412361;32;318413;-70
2024/03/06 07:12:17;;;;;;;44.33;26.67;;;;;;;;;;4401521;32;318377;-71
2024/03/06 07:14:45;;;;;;;54.43;30.67;;;;;;;;;;4412157;32;318125;-70
2024/03/06 07:17:11;;;;;;;47.17;25.30;;;;;;;;;;4402037;32;318528;-70
2024/03/06 07:19:39;;;;;;;43.60;28.03;;;;;;;;;;4410923;32;318501;-70
2024/03/06 07:22:06;;;;;;;36.87;24.40;;;;;;;;;;4411152;32;318463;-70
2024/03/06 07:24:32;;;;;;;53.40;27.80;;;;;;;;;;4399224;32;417331;-71
2024/03/06 07:27:01;;;;;;;36.73;23.47;;;;;;;;;;4412336;32;318229;-71
2024/03/06 07:29:28;;;;;;;47.03;24.70;;;;;;;;;;4398831;32;318566;-70
2024/03/06 07:31:56;;;;;;;33.57;20.43;;;;;;;;;;4410590;32;344746;-70
2024/03/06 07:34:23;;;;;;;37.63;21.13;;;;;;;;;;4401166;32;318446;-70
2024/03/06 07:36:50;;;;;;;29.80;19.83;;;;;;;;;;4410743;32;318737;-72
2024/03/06 07:39:17;;;;;;;37.13;17.50;;;;;;;;;;4399692;32;318720;-69
2024/03/06 07:41:44;;;;;;;32.77;20.27;;;;;;;;;;4411103;32;319461;-72
2024/03/06 07:44:13;;;;;;;38.03;19.77;;;;;;;;;;4402054;32;318447;-70
2024/03/06 07:46:40;;;;;;;23.67;15.23;;;;;;;;;;4411065;32;319207;-71
2024/03/06 07:49:08;;;;;;;38.97;16.00;;;;;;;;;;4402460;32;319603;-70
2024/03/06 07:51:36;;;;;;;27.90;15.83;;;;;;;;;;4409892;32;319633;-71
2024/03/06 07:54:04;;;;;;;24.70;14.90;;;;;;;;;;4411844;32;319350;-69
2024/03/06 07:56:31;;;;;;;25.80;14.63;;;;;;;;;;4402308;32;318952;-71
2024/03/06 07:58:58;;;;;;;26.73;15.67;;;;;;;;;;4410295;32;318895;-70
2024/03/06 08:01:25;;;;;;;27.50;15.23;;;;;;;;;;4398085;32;334478;-70
2024/03/06 08:03:52;;;;;;;27.27;15.83;;;;;;;;;;4410951;32;317816;-70
2024/03/06 08:06:20;;;;;;;24.10;15.90;;;;;;;;;;4401002;32;349357;-70
2024/03/06 08:08:47;;;;;;;22.90;15.60;;;;;;;;;;4412148;32;319221;-72
2024/03/06 08:11:15;;;;;;;26.67;16.60;;;;;;;;;;4402573;32;319445;-70
2024/03/06 08:13:41;;;;;;;26.70;16.80;;;;;;;;;;4410060;32;319588;-70
2024/03/06 08:16:09;;;;;;;24.87;17.43;;;;;;;;;;4401582;32;319379;-69
2024/03/06 08:18:37;;;;;;;21.47;14.87;;;;;;;;;;4412008;32;319218;-70
2024/03/06 08:21:05;;;;;;;27.33;17.20;;;;;;;;;;4410384;32;354339;-70
2024/03/06 08:23:33;;;;;;;25.40;18.07;;;;;;;;;;4397460;32;419918;-72
2024/03/06 08:26:00;;;;;;;32.47;20.13;;;;;;;;;;4412021;32;319297;-71
2024/03/06 08:28:27;;;;;;;29.33;16.47;;;;;;;;;;4403559;32;319480;-71
2024/03/06 08:30:54;;;;;;;29.57;17.77;;;;;;;;;;4414969;32;319402;-71
2024/03/06 08:33:22;;;;;;;26.03;16.20;;;;;;;;;;4402339;32;319368;-69
2024/03/06 08:35:49;;;;;;;28.57;16.53;;;;;;;;;;4413168;32;318856;-71
2024/03/06 08:38:17;;;;;;;33.23;18.97;;;;;;;;;;4403532;32;319617;-70
2024/03/06 08:40:45;;;;;;;34.40;18.33;;;;;;;;;;4414383;32;319423;-70
2024/03/06 08:43:12;;;;;;;34.90;18.43;;;;;;;;;;4403114;32;319334;-71
2024/03/06 08:45:39;;;;;;;29.07;18.93;;;;;;;;;;4412069;32;319590;-72
2024/03/06 08:48:07;;;;;;;40.47;21.20;;;;;;;;;;4404978;32;319724;-70
2024/03/06 08:50:34;;;;;;;29.90;19.80;;;;;;;;;;4412736;32;319386;-70
2024/03/06 08:53:01;;;;;;;38.27;19.90;;;;;;;;;;4413215;32;319399;-71
2024/03/06 08:55:30;;;;;;;34.93;21.43;;;;;;;;;;4402409;32;320123;-71
2024/03/06 08:58:01;;;;;;;29.93;18.63;;;;;;;;;;4413900;32;318773;-71
2024/03/06 09:00:28;;;;;;;35.07;18.47;;;;;;;;;;4404195;32;319382;-70
2024/03/06 09:02:54;;;;;;;33.50;19.10;;;;;;;;;;4413997;32;319268;-72
2024/03/06 09:05:21;;;;;;;28.50;16.87;;;;;;;;;;4403107;32;319239;-71
2024/03/06 09:07:48;;;;;;;29.70;17.60;;;;;;;;;;4412086;32;318811;-70
2024/03/06 09:10:15;;;;;;;25.67;18.70;;;;;;;;;;4404333;32;319367;-70
2024/03/06 09:12:42;;;;;;;35.20;18.70;;;;;;;;;;4412885;32;319710;-70
2024/03/06 09:15:11;;;;;;;27.27;18.53;;;;;;;;;;4402866;32;318918;-71
2024/03/06 09:17:38;;;;;;;32.47;18.47;;;;;;;;;;4410836;32;319839;-71
2024/03/06 09:20:09;;;;;;;46.57;21.93;;;;;;;;;;4414109;32;319575;-71
2024/03/06 09:22:37;;;;;;;48.47;21.87;;;;;;;;;;4399344;32;418568;-71
2024/03/06 09:25:05;;;;;;;31.10;19.37;;;;;;;;;;4414218;32;319906;-71
2024/03/06 09:27:31;;;;;;;54.77;23.20;;;;;;;;;;4399366;32;416771;-71
2024/03/06 09:29:58;;;;;;;21.90;15.03;;;;;;;;;;4413800;32;320083;-71
2024/03/06 09:32:27;;;;;;;23.43;16.10;;;;;;;;;;4402824;32;320004;-73
2024/03/06 09:34:54;;;;;;;32.07;17.00;;;;;;;;;;4412725;32;319438;-70
2024/03/06 09:37:21;;;;;;;26.60;16.57;;;;;;;;;;4400663;32;345183;-69
2024/03/06 09:39:47;;;;;;;28.13;16.10;;;;;;;;;;4413434;32;319522;-72
2024/03/06 09:42:14;;;;;;;26.60;17.33;;;;;;;;;;4402749;32;319240;-71
2024/03/06 09:44:42;;;;;;;23.07;16.10;;;;;;;;;;4411944;32;319655;-70
2024/03/06 09:47:13;;;;;;;22.70;16.33;;;;;;;;;;4401649;32;385560;-70
2024/03/06 09:49:41;;;;;;;23.90;15.23;;;;;;;;;;4410313;32;319448;-69
2024/03/06 09:52:10;;;;;;;21.00;15.00;;;;;;;;;;4402786;32;319625;-70
2024/03/06 09:54:38;;;;;;;25.83;14.70;;;;;;;;;;4412250;32;321847;-70
2024/03/06 09:57:06;;;;;;;21.57;14.23;;;;;;;;;;4411280;32;318583;-70
2024/03/06 09:59:32;;;;;;;19.87;13.10;;;;;;;;;;4398550;32;418262;-71
2024/03/06 10:02:05;;;;;;;25.63;15.30;;;;;;;;;;4413132;32;318882;-69
2024/03/06 10:04:37;;;;;;;23.47;13.00;;;;;;;;;;4400286;32;420744;-70
2024/03/06 10:07:07;;;;;;;24.77;16.60;;;;;;;;;;4413367;32;319518;-70
2024/03/06 10:09:35;;;;;;;26.57;14.60;;;;;;;;;;4398184;32;418858;-70
2024/03/06 10:12:01;;;;;;;23.50;13.87;;;;;;;;;;4413503;32;318901;-71
2024/03/06 10:14:29;;;;;;;28.77;15.47;;;;;;;;;;4401759;32;319687;-71
2024/03/06 10:16:58;;;;;;;19.37;13.27;;;;;;;;;;4412317;32;319594;-70
2024/03/06 10:19:27;;;;;;;19.50;12.90;;;;;;;;;;4401524;32;319533;-70
2024/03/06 10:21:58;;;;;;;18.03;12.37;;;;;;;;;;4411772;32;338838;-70
2024/03/06 10:24:27;;;;;;;15.17;10.10;;;;;;;;;;4403375;32;319553;-71
2024/03/06 10:26:58;;;;;;;20.10;9.90;;;;;;;;;;4411822;32;319509;-71
2024/03/06 10:29:26;;;;;;;14.50;9.57;;;;;;;;;;4400850;32;318686;-70
2024/03/06 10:31:54;;;;;;;24.17;13.80;;;;;;;;;;4413073;32;318276;-70
2024/03/06 10:34:21;;;;;;;24.10;9.57;;;;;;;;;;4402147;32;319756;-70
2024/03/06 10:36:56;;;;;;;19.27;9.73;;;;;;;;;;4411638;32;317893;-71
2024/03/06 10:39:24;;;;;;;17.57;9.40;;;;;;;;;;4398365;32;359428;-70
2024/03/06 10:41:54;;;;;;;17.07;8.93;;;;;;;;;;4412759;32;317906;-71
2024/03/06 10:44:25;;;;;;;12.82;9.55;;;;;;;;;;4401888;32;318328;-71
2024/03/06 10:46:58;;;;;;;10.48;7.03;;;;;;;;;;4412698;32;317884;-70
2024/03/06 10:49:27;;;;;;;12.13;5.93;;;;;;;;;;4400578;32;317760;-71
2024/03/06 10:51:58;;;;;;;18.83;8.47;;;;;;;;;;4411324;32;317906;-72
2024/03/06 10:54:28;;;;;;;10.43;8.00;;;;;;;;;;4402736;32;318230;-72
2024/03/06 10:56:57;;;;;;;12.27;7.90;;;;;;;;;;4412717;32;317645;-71
2024/03/06 10:59:27;;;;;;;9.93;7.27;;;;;;;;;;4400674;32;316433;-71
2024/03/06 11:01:55;;;;;;;12.30;7.13;;;;;;;;;;4412882;32;317589;-72
2024/03/06 11:04:23;;;;;;;16.70;8.50;;;;;;;;;;4401541;32;318256;-72
2024/03/06 11:06:50;;;;;;;15.97;7.17;;;;;;;;;;4411045;32;317831;-71
2024/03/06 11:09:18;;;;;;;11.17;6.93;;;;;;;;;;4400391;32;320230;-70
2024/03/06 11:11:53;;;;;;;18.27;11.27;;;;;;;;;;4412734;32;318294;-71
2024/03/06 11:14:22;;;;;;;12.82;7.15;;;;;;;;;;4402979;32;319819;-72
2024/03/06 11:17:04;;;;;;;12.18;8.05;;;;;;;;;;4411834;32;318534;-72
2024/03/06 11:19:31;;;;;;;12.10;8.05;;;;;;;;;;4396492;32;419490;-70
2024/03/06 11:21:59;;;;;;;10.75;7.32;;;;;;;;;;4411481;32;318781;-73
2024/03/06 11:24:33;;;;;;;13.43;7.10;;;;;;;;;;4402149;32;317721;-71
2024/03/06 11:27:01;;;;;;;11.23;7.10;;;;;;;;;;4411839;32;327099;-70
2024/03/06 11:29:50;;;;;;;27.50;15.23;;;;;;;;;;4400330;32;318588;-71
2024/03/06 11:32:18;;;;;;;13.93;9.47;;;;;;;;;;4402420;32;319580;-71
2024/03/06 11:34:44;;;;;;;17.37;8.80;;;;;;;;;;4412143;32;318541;-72
2024/03/06 11:37:11;;;;;;;17.03;9.07;;;;;;;;;;4401569;32;318416;-71
2024/03/06 11:39:40;;;;;;;11.88;7.07;;;;;;;;;;4408556;32;318169;-70
2024/03/06 11:42:08;;;;;;;20.10;9.80;;;;;;;;;;4401245;32;318292;-73
2024/03/06 11:44:36;;;;;;;32.93;16.53;;;;;;;;;;4413082;32;318082;-73
2024/03/06 11:47:05;;;;;;;13.13;7.87;;;;;;;;;;4412208;32;319498;-71
2024/03/06 11:49:33;;;;;;;11.87;7.57;;;;;;;;;;4401082;32;317703;-71
2024/03/06 11:52:03;;;;;;;11.10;7.30;;;;;;;;;;4410784;32;318707;-71
2024/03/06 11:54:31;;;;;;;29.77;15.37;;;;;;;;;;4402374;32;318726;-73
2024/03/06 11:56:59;;;;;;;19.83;12.33;;;;;;;;;;4411222;32;319603;-72
2024/03/06 11:59:27;;;;;;;17.35;10.57;;;;;;;;;;4398747;32;319219;-71
2024/03/06 12:01:56;;;;;;;29.13;16.67;;;;;;;;;;4411620;32;318810;-71
2024/03/06 12:04:24;;;;;;;13.57;8.97;;;;;;;;;;4404408;32;319494;-71
2024/03/06 12:06:51;;;;;;;59.33;30.08;;;;;;;;;;4414844;32;317470;-72
2024/03/06 12:09:18;;;;;;;12.70;8.97;;;;;;;;;;4404052;32;319506;-70
2024/03/06 12:11:45;;;;;;;37.88;20.77;;;;;;;;;;4415346;32;318209;-72
2024/03/06 12:14:16;;;;;;;17.07;10.63;;;;;;;;;;4405301;32;319669;-71
2024/03/06 12:16:44;;;;;;;15.33;9.50;;;;;;;;;;4414236;32;319003;-72
2024/03/06 12:19:13;;;;;;;16.90;10.53;;;;;;;;;;4404760;32;318151;-71
2024/03/06 12:21:40;;;;;;;18.17;11.83;;;;;;;;;;4413200;32;319263;-72
2024/03/06 12:24:09;;;;;;;17.37;9.00;;;;;;;;;;4404197;32;319079;-71
2024/03/06 12:26:37;;;;;;;19.53;8.67;;;;;;;;;;4415549;32;318403;-72
2024/03/06 12:29:08;;;;;;;23.87;11.63;;;;;;;;;;4415031;32;318397;-71
2024/03/06 12:31:36;;;;;;;17.87;10.23;;;;;;;;;;4400447;32;418678;-72
2024/03/06 12:34:04;;;;;;;13.23;9.33;;;;;;;;;;4413849;32;318795;-71
2024/03/06 12:36:32;;;;;;;18.23;9.57;;;;;;;;;;4405150;32;318670;-72
2024/03/06 12:39:12;;;;;;;15.73;8.90;;;;;;;;;;4414235;32;318338;-71
2024/03/06 12:41:39;;;;;;;18.40;8.87;;;;;;;;;;4399284;32;419147;-71
2024/03/06 12:44:08;;;;;;;13.20;8.63;;;;;;;;;;4406814;32;318366;-71
2024/03/06 12:46:35;;;;;;;13.83;9.50;;;;;;;;;;4415094;32;317924;-70
2024/03/06 12:49:02;;;;;;;16.27;9.27;;;;;;;;;;4414906;32;318690;-73
2024/03/06 12:51:28;;;;;;;14.83;7.77;;;;;;;;;;4403612;32;318370;-71
2024/03/06 12:53:57;;;;;;;12.73;8.87;;;;;;;;;;4413885;32;317760;-73
2024/03/06 12:56:25;;;;;;;16.90;10.07;;;;;;;;;;4405387;32;318571;-71
2024/03/06 12:58:54;;;;;;;14.20;9.87;;;;;;;;;;4414655;32;319480;-72
2024/03/06 13:01:21;;;;;;;13.10;8.90;;;;;;;;;;4402167;32;341211;-72
2024/03/06 13:03:50;;;;;;;15.90;8.00;;;;;;;;;;4414679;32;318418;-72
2024/03/06 13:06:17;;;;;;;10.87;8.10;;;;;;;;;;4403833;32;318660;-71
2024/03/06 13:08:43;;;;;;;11.07;8.40;;;;;;;;;;4414512;32;318176;-70
2024/03/06 13:11:11;;;;;;;13.17;7.80;;;;;;;;;;4403777;32;318299;-71
2024/03/06 13:13:38;;;;;;;12.77;7.83;;;;;;;;;;4411242;32;317792;-71
2024/03/06 13:16:05;;;;;;;12.93;7.60;;;;;;;;;;4414043;32;340215;-71
2024/03/06 13:18:32;;;;;;;9.10;6.00;;;;;;;;;;4401153;32;418100;-73
2024/03/06 13:21:00;;;;;;;14.90;7.47;;;;;;;;;;4413929;32;346885;-72
2024/03/06 13:23:27;;;;;;;14.83;7.93;;;;;;;;;;4402246;32;318420;-71
2024/03/06 13:25:54;;;;;;;12.00;7.33;;;;;;;;;;4413953;32;318258;-71
2024/03/06 13:28:22;;;;;;;9.93;6.60;;;;;;;;;;4404773;32;317575;-71
2024/03/06 13:30:50;;;;;;;9.17;7.03;;;;;;;;;;4410375;32;354314;-69
2024/03/06 13:33:17;;;;;;;17.03;10.60;;;;;;;;;;4404865;32;317492;-72
2024/03/06 13:35:43;;;;;;;11.03;8.23;;;;;;;;;;4413189;32;319113;-70
2024/03/06 13:38:10;;;;;;;16.47;8.27;;;;;;;;;;4403379;32;317647;-70
2024/03/06 13:40:37;;;;;;;20.97;13.17;;;;;;;;;;4412741;32;318232;-71
2024/03/06 13:43:05;;;;;;;20.73;13.50;;;;;;;;;;4404233;32;319494;-69
2024/03/06 13:45:34;;;;;;;13.07;8.50;;;;;;;;;;4414587;32;319493;-72
2024/03/06 13:48:01;;;;;;;11.00;6.93;;;;;;;;;;4402839;32;378394;-70
2024/03/06 13:50:29;;;;;;;13.97;9.20;;;;;;;;;;4412409;32;318280;-70
2024/03/06 13:52:56;;;;;;;19.35;7.28;;;;;;;;;;4414378;32;318625;-69
2024/03/06 13:55:22;;;;;;;12.35;6.43;;;;;;;;;;4404058;32;318326;-71
2024/03/06 13:57:49;;;;;;;11.80;6.97;;;;;;;;;;4412581;32;317599;-69
2024/03/06 14:00:22;;;;;;;12.98;7.68;;;;;;;;;;4401555;32;318662;-70
2024/03/06 14:02:50;;;;;;;36.20;16.67;;;;;;;;;;4413506;32;318292;-69
2024/03/06 14:05:17;;;;;;;17.23;10.63;;;;;;;;;;4404293;32;319475;-68
2024/03/06 14:07:43;;;;;;;19.17;9.63;;;;;;;;;;4413539;32;319498;-68